createdAt,value
2022-10-08T07:04:01.223Z,84.40
2022-10-08T07:04:38.174Z,84.80
2022-10-08T07:05:13.030Z,84.50
2022-10-08T07:05:47.516Z,84.40
2022-10-08T07:06:23.007Z,84.30
2022-10-08T07:06:56.654Z,84.00
2022-10-08T07:07:30.393Z,83.30
2022-10-08T07:08:15.640Z,82.70
2022-10-08T07:08:53.542Z,82.10
2022-10-08T07:09:30.574Z,81.70
2022-10-08T07:10:07.923Z,81.40
2022-10-08T07:10:43.600Z,81.20
2022-10-08T07:11:19.267Z,80.80
2022-10-08T07:11:54.260Z,80.50
2022-10-08T07:12:28.685Z,80.10
2022-10-08T07:13:02.606Z,79.60
2022-10-08T07:13:39.092Z,79.30
2022-10-08T07:14:15.313Z,79.20
2022-10-08T07:14:50.426Z,79.20
2022-10-08T07:15:26.462Z,79.00
2022-10-08T07:16:04.193Z,78.60
2022-10-08T07:16:38.638Z,78.20
2022-10-08T07:17:14.176Z,78.10
2022-10-08T07:17:50.374Z,77.90
2022-10-08T07:18:27.705Z,78.30
2022-10-08T07:19:02.120Z,77.40
2022-10-08T07:19:38.663Z,77.30
2022-10-08T07:20:14.063Z,76.80
2022-10-08T07:20:55.982Z,76.20
2022-10-08T07:21:32.617Z,75.60
2022-10-08T07:22:07.699Z,75.30
2022-10-08T07:24:29.358Z,72.80
2022-10-08T07:25:03.194Z,72.50
2022-10-08T07:25:40.158Z,72.20
2022-10-08T07:26:15.467Z,71.80
2022-10-08T07:26:51.772Z,71.60
2022-10-08T07:27:25.612Z,71.50
2022-10-08T07:28:01.088Z,71.50
2022-10-08T07:28:38.437Z,71.30
2022-10-08T07:29:14.800Z,71.30
2022-10-08T07:29:48.813Z,71.10
2022-10-08T07:30:24.253Z,71.00
2022-10-08T07:31:03.315Z,70.60
2022-10-08T07:31:40.417Z,70.30
2022-10-08T07:32:18.412Z,70.70
2022-10-08T07:32:54.101Z,69.60
2022-10-08T07:33:31.946Z,69.10
2022-10-08T07:34:08.988Z,68.80
2022-10-08T07:34:45.338Z,68.80
2022-10-08T07:35:19.372Z,68.50
2022-10-08T07:35:54.613Z,68.40
2022-10-08T07:36:30.046Z,68.70
2022-10-08T07:37:05.025Z,68.70
2022-10-08T07:37:42.781Z,68.60
2022-10-08T07:38:20.573Z,68.40
2022-10-08T07:38:56.368Z,68.10
2022-10-08T07:39:30.901Z,68.20
2022-10-08T07:40:09.194Z,68.20
2022-10-08T07:40:44.110Z,68.50
2022-10-08T07:41:17.215Z,68.40
2022-10-08T07:41:52.248Z,67.90
2022-10-08T07:42:27.167Z,67.60
2022-10-08T07:43:01.438Z,67.30
2022-10-08T07:43:36.145Z,67.10
2022-10-08T07:44:12.740Z,67.10
2022-10-08T07:44:47.513Z,67.00
2022-10-08T07:45:22.241Z,66.90
2022-10-08T07:45:56.643Z,66.90
2022-10-08T07:46:33.315Z,66.60
2022-10-08T07:47:09.854Z,66.40
2022-10-08T07:47:44.355Z,66.40
2022-10-08T07:48:20.993Z,66.70
2022-10-08T07:48:56.878Z,66.90
2022-10-08T07:49:32.942Z,66.90
2022-10-08T07:50:10.081Z,67.20
2022-10-08T07:50:44.963Z,67.40
2022-10-08T07:51:22.503Z,67.30
2022-10-08T07:51:55.729Z,67.20
2022-10-08T08:22:11.124Z,53.00
2022-10-08T08:22:45.684Z,53.10
2022-10-08T08:23:20.364Z,52.50
2022-10-08T08:23:57.787Z,52.00
2022-10-08T08:24:33.080Z,52.00
2022-10-08T08:25:09.207Z,51.80
2022-10-08T08:25:45.740Z,51.50
2022-10-08T08:26:22.490Z,51.30
2022-10-08T08:26:57.873Z,51.00
2022-10-08T08:27:33.196Z,50.90
2022-10-08T08:28:08.093Z,50.50
2022-10-08T08:28:43.704Z,50.10
2022-10-08T08:29:18.814Z,50.20
2022-10-08T08:29:53.989Z,50.50
2022-10-08T08:30:28.815Z,50.60
2022-10-08T08:31:13.008Z,50.80
2022-10-08T08:31:49.141Z,50.80
2022-10-08T08:32:28.430Z,50.80
2022-10-08T08:33:03.199Z,50.60
2022-10-08T08:33:37.729Z,50.60
2022-10-08T08:34:15.299Z,50.70
2022-10-08T08:34:49.290Z,50.60
2022-10-08T08:35:24.942Z,50.70
2022-10-08T08:35:59.658Z,51.20
2022-10-08T08:36:35.802Z,51.40
2022-10-08T08:37:11.730Z,51.50
2022-10-08T08:37:46.360Z,51.50
2022-10-08T08:38:21.323Z,50.80
2022-10-08T08:38:57.888Z,50.60
2022-10-08T08:39:34.627Z,50.50
2022-10-08T08:40:13.151Z,50.70
2022-10-08T08:40:47.848Z,50.90
2022-10-08T08:42:03.840Z,50.70
2022-10-08T08:42:51.036Z,50.30
2022-10-08T08:43:26.945Z,50.00
2022-10-08T08:44:01.819Z,49.80
2022-10-08T08:44:38.891Z,49.70
2022-10-08T08:45:45.237Z,49.90
2022-10-08T08:46:22.771Z,50.30
2022-10-08T08:47:05.892Z,49.70
2022-10-08T08:47:50.371Z,49.50
2022-10-08T08:48:33.802Z,49.50
2022-10-08T08:49:15.550Z,49.60
2022-10-08T08:49:56.083Z,49.60
2022-10-08T08:50:34.013Z,49.40
2022-10-08T08:51:11.721Z,49.60
2022-10-08T08:52:26.447Z,49.60
2022-10-08T08:53:00.858Z,50.10
2022-10-08T08:53:36.897Z,50.10
2022-10-08T08:54:10.836Z,50.10
2022-10-08T08:54:49.909Z,50.50
2022-10-08T08:55:34.243Z,50.80
2022-10-08T08:56:13.739Z,51.10
2022-10-08T08:56:53.830Z,51.40
2022-10-08T08:57:59.586Z,51.40
2022-10-08T08:58:39.068Z,51.50
2022-10-08T08:59:28.939Z,51.80
2022-10-08T09:00:09.362Z,51.90
2022-10-08T09:00:48.522Z,52.10
2022-10-08T09:01:32.177Z,52.20
2022-10-08T09:02:21.912Z,52.40
2022-10-08T09:03:00.153Z,52.20
2022-10-08T09:03:41.385Z,52.10
2022-10-08T09:04:24.222Z,52.00
2022-10-08T09:05:01.375Z,51.90
2022-10-08T09:05:43.111Z,52.10
2022-10-08T09:06:23.400Z,52.00
2022-10-08T09:06:58.994Z,52.10
2022-10-08T09:07:44.331Z,52.40
2022-10-08T09:08:23.076Z,52.30
2022-10-08T09:09:00.714Z,52.60
2022-10-08T09:09:39.270Z,52.80
2022-10-08T09:10:20.837Z,52.10
2022-10-08T09:10:58.071Z,52.00
2022-10-08T09:11:34.315Z,51.80
2022-10-08T09:12:20.635Z,51.80
2022-10-08T09:12:58.000Z,51.60
2022-10-08T09:13:37.436Z,51.70
2022-10-08T09:14:29.728Z,51.70
2022-10-08T09:15:06.385Z,51.80
2022-10-08T09:15:41.240Z,51.70
2022-10-08T09:16:17.340Z,51.70
2022-10-08T09:16:51.403Z,51.90
2022-10-08T09:17:31.528Z,52.40
2022-10-08T09:18:08.321Z,52.70
2022-10-08T09:18:43.719Z,51.90
2022-10-08T09:19:17.499Z,51.50
2022-10-08T09:19:53.721Z,51.50
2022-10-08T09:20:28.301Z,51.30
2022-10-08T09:21:02.759Z,51.30
2022-10-08T09:21:39.818Z,51.80
2022-10-08T09:22:24.435Z,51.50
2022-10-08T09:22:58.659Z,51.50
2022-10-08T09:23:34.175Z,51.50
2022-10-08T09:24:09.120Z,51.60
2022-10-08T09:24:43.542Z,52.00
2022-10-08T09:25:22.314Z,52.40
2022-10-08T09:26:02.739Z,52.50
2022-10-08T09:26:41.690Z,52.20
2022-10-08T09:27:24.367Z,52.40
2022-10-08T09:28:05.389Z,52.50
2022-10-08T09:28:46.787Z,52.60
2022-10-08T09:29:34.573Z,52.60
2022-10-08T09:30:28.541Z,52.90
2022-10-08T09:31:15.550Z,53.20
2022-10-08T09:31:51.119Z,52.70
2022-10-08T09:32:29.805Z,52.10
2022-10-08T09:33:19.086Z,51.80
2022-10-08T09:34:05.255Z,51.80
2022-10-08T09:34:40.862Z,51.90
2022-10-08T09:35:16.863Z,51.90
2022-10-08T09:35:53.410Z,51.80
2022-10-08T09:36:38.267Z,51.80
2022-10-08T09:37:23.858Z,51.70
2022-10-08T09:38:05.437Z,51.80
2022-10-08T09:38:40.548Z,51.50
2022-10-08T09:39:21.194Z,51.80
2022-10-08T09:40:18.830Z,51.30
2022-10-08T09:41:05.465Z,51.40
2022-10-08T09:41:40.375Z,51.10
2022-10-08T09:42:19.442Z,51.30
2022-10-08T09:43:14.820Z,51.50
2022-10-08T09:44:13.026Z,51.60
2022-10-08T09:44:49.091Z,52.00
2022-10-08T09:45:35.943Z,52.00
2022-10-08T09:46:28.846Z,52.40
2022-10-08T09:47:08.163Z,52.50
2022-10-08T09:47:42.530Z,52.70
2022-10-08T09:48:25.100Z,52.80
2022-10-08T09:49:29.907Z,52.90
2022-10-08T09:50:07.497Z,52.80
2022-10-08T09:51:03.210Z,52.80
2022-10-08T09:51:37.109Z,53.00
2022-10-08T09:52:21.422Z,53.30
2022-10-08T09:52:55.684Z,53.30
2022-10-08T09:53:36.894Z,53.40
2022-10-08T09:54:18.829Z,53.40
2022-10-08T09:55:01.537Z,53.30
2022-10-08T09:55:36.036Z,53.40
2022-10-08T09:56:17.823Z,53.30
2022-10-08T09:56:59.694Z,53.40
2022-10-08T09:57:44.174Z,53.70
2022-10-08T09:58:21.765Z,53.50
2022-10-08T09:58:59.950Z,53.20
2022-10-08T09:59:44.063Z,53.30
2022-10-08T10:00:34.188Z,53.20
2022-10-08T10:01:15.394Z,53.20
2022-10-08T10:01:50.376Z,53.80
2022-10-08T10:02:30.485Z,53.20
2022-10-08T10:03:07.815Z,52.80
2022-10-08T10:03:49.235Z,52.60
2022-10-08T10:04:33.836Z,52.30
2022-10-08T10:05:20.411Z,51.70
2022-10-08T10:05:57.643Z,51.20
2022-10-08T10:06:34.981Z,50.80
2022-10-08T10:07:09.310Z,50.50
2022-10-08T10:07:46.178Z,50.40
2022-10-08T10:08:49.409Z,50.50
2022-10-08T10:09:31.819Z,50.60
2022-10-08T10:10:16.831Z,50.70
2022-10-08T10:10:59.130Z,50.70
2022-10-08T10:11:40.468Z,50.70
2022-10-08T10:12:25.726Z,50.20
2022-10-08T10:13:04.624Z,49.60
2022-10-08T10:13:42.633Z,49.10
2022-10-08T10:14:25.919Z,49.10
2022-10-08T10:15:04.450Z,49.10
2022-10-08T10:15:43.828Z,48.90
2022-10-08T10:16:23.510Z,48.60
2022-10-08T10:17:03.250Z,48.40
2022-10-08T10:17:43.848Z,48.20
2022-10-08T10:18:23.560Z,48.10
2022-10-08T10:19:01.296Z,48.00
2022-10-08T10:19:47.255Z,47.60
2022-10-08T10:20:25.140Z,47.60
2022-10-08T10:21:04.851Z,47.70
2022-10-08T10:21:44.896Z,47.80
2022-10-08T10:22:25.158Z,47.90
2022-10-08T10:23:07.150Z,47.60
2022-10-08T10:23:47.158Z,47.40
2022-10-08T10:24:46.462Z,47.20
2022-10-08T10:25:31.352Z,47.30
2022-10-08T10:26:13.303Z,47.20
2022-10-08T10:26:50.512Z,46.90
2022-10-08T10:27:32.563Z,46.70
2022-10-08T10:28:13.046Z,47.00
2022-10-08T10:28:52.464Z,46.00
2022-10-08T10:29:33.967Z,45.90
2022-10-08T10:30:18.106Z,45.70
2022-10-08T10:31:02.389Z,45.30
2022-10-08T10:31:46.121Z,48.50
2022-10-08T10:32:23.934Z,45.60
2022-10-08T10:33:06.483Z,45.40
2022-10-08T10:33:48.430Z,45.20
2022-10-08T10:34:28.696Z,45.20
2022-10-08T10:35:11.292Z,45.40
2022-10-08T10:35:53.194Z,45.60
2022-10-08T10:51:27.140Z,45.70
2022-10-08T10:52:10.257Z,46.20
2022-10-08T10:53:00.392Z,46.60
2022-10-08T10:53:47.523Z,46.70
2022-10-08T10:54:33.473Z,47.00
2022-10-08T10:55:44.210Z,47.00
2022-10-08T10:56:20.246Z,46.90
2022-10-08T10:56:59.596Z,46.90
2022-10-08T10:57:50.739Z,46.40
2022-10-08T10:58:40.750Z,46.40
2022-10-08T10:59:30.166Z,46.40
2022-10-08T11:00:07.816Z,46.20
2022-10-08T11:00:53.779Z,46.30
2022-10-08T11:01:39.170Z,46.40
2022-10-08T11:02:25.992Z,46.80
2022-10-08T11:03:08.639Z,47.80
2022-10-08T11:03:49.509Z,47.50
2022-10-08T11:04:37.792Z,47.60
2022-10-08T11:05:19.870Z,47.80
2022-10-08T11:06:03.326Z,48.30
2022-10-08T11:07:09.567Z,48.60
2022-10-08T11:08:23.153Z,48.80
2022-10-08T11:09:05.159Z,48.90
2022-10-08T11:09:47.640Z,49.20
2022-10-08T11:10:35.339Z,49.70
2022-10-08T11:11:37.862Z,49.70
2022-10-08T11:12:30.532Z,49.20
2022-10-08T11:13:17.347Z,49.30
2022-10-08T11:51:34.281Z,52.70
2022-10-08T11:52:16.933Z,52.80
2022-10-08T11:52:52.542Z,53.10
2022-10-08T11:53:27.731Z,52.90
2022-10-08T11:54:17.250Z,52.80
2022-10-08T11:54:55.776Z,53.20
2022-10-08T11:55:34.722Z,53.30
2022-10-08T11:56:11.443Z,53.50
2022-10-08T11:56:47.408Z,53.90
2022-10-08T11:57:25.615Z,53.80
2022-10-08T11:58:09.755Z,53.80
2022-10-08T11:58:44.583Z,53.20
2022-10-08T11:59:32.529Z,53.20
2022-10-08T12:00:13.102Z,52.80
2022-10-08T12:00:50.630Z,52.80
2022-10-08T12:01:24.989Z,52.90
2022-10-08T12:02:00.296Z,53.00
2022-10-08T12:02:39.702Z,53.20
2022-10-08T12:03:28.237Z,53.20
2022-10-08T12:04:05.717Z,53.20
2022-10-08T12:04:41.429Z,53.20
2022-10-08T12:05:27.213Z,53.20
2022-10-08T12:06:14.729Z,53.40
2022-10-08T12:07:01.455Z,53.70
2022-10-08T12:07:40.282Z,53.90
2022-10-08T12:09:12.221Z,54.00
2022-10-08T12:10:23.569Z,54.00
2022-10-08T12:11:38.309Z,54.00
2022-10-08T12:12:14.874Z,54.10
2022-10-08T12:13:32.707Z,54.10
2022-10-08T12:14:30.012Z,54.00
2022-10-08T12:15:03.519Z,54.10
2022-10-08T12:15:59.740Z,54.00
2022-10-08T12:17:08.454Z,53.80
2022-10-08T12:17:55.478Z,53.80
2022-10-08T12:19:03.118Z,53.60
2022-10-08T12:20:00.444Z,53.60
2022-10-08T12:20:35.172Z,53.60
2022-10-08T12:21:55.697Z,53.60
2022-10-08T12:22:45.088Z,53.80
2022-10-08T12:23:42.360Z,54.00
2022-10-08T12:25:00.062Z,54.30
2022-10-08T12:26:03.386Z,55.00
2022-10-08T12:27:18.570Z,55.40
2022-10-08T12:28:18.232Z,55.50
2022-10-08T12:28:52.553Z,55.50
2022-10-08T12:29:50.202Z,55.30
2022-10-08T12:30:49.278Z,55.30
2022-10-08T12:32:02.586Z,55.30
2022-10-08T12:32:55.757Z,55.30
2022-10-08T12:33:32.051Z,55.00
2022-10-08T12:34:17.404Z,54.90
2022-10-08T12:34:52.442Z,54.90
2022-10-08T12:35:31.813Z,54.90
2022-10-08T12:36:19.583Z,54.80
2022-10-08T12:37:05.811Z,54.80
2022-10-08T12:38:11.340Z,54.80
2022-10-08T12:38:54.069Z,54.90
2022-10-08T12:39:36.974Z,55.20
2022-10-08T12:40:20.341Z,55.10
2022-10-08T12:41:02.522Z,55.10
2022-10-08T15:05:36.218Z,62.60
2022-10-08T15:06:16.953Z,62.90
2022-10-08T15:06:50.895Z,63.20
2022-10-08T15:07:25.488Z,63.20
2022-10-08T15:08:00.588Z,63.10
2022-10-08T15:08:35.873Z,63.00
2022-10-08T15:09:13.069Z,62.90
2022-10-08T15:09:48.804Z,62.80
2022-10-08T15:10:22.920Z,62.80
2022-10-08T15:10:58.023Z,62.60
2022-10-08T15:11:31.511Z,62.40
2022-10-08T15:12:06.762Z,62.10
2022-10-08T15:12:41.182Z,61.90
2022-10-08T15:13:15.023Z,61.80
2022-10-08T15:13:49.002Z,62.20
2022-10-08T15:14:25.531Z,62.40
2022-10-08T15:14:59.988Z,62.80
2022-10-08T15:15:39.847Z,62.80
2022-10-08T15:16:16.241Z,62.70
2022-10-08T15:16:51.096Z,62.70
2022-10-08T15:17:25.894Z,62.80
2022-10-08T15:17:59.796Z,62.90
2022-10-08T15:18:34.347Z,62.80
2022-10-08T15:19:11.027Z,62.60
2022-10-08T15:19:45.349Z,62.50
2022-10-08T15:20:20.073Z,62.10
2022-10-08T15:20:58.954Z,62.00
2022-10-08T15:21:33.952Z,62.00
2022-10-08T15:22:10.384Z,62.30
2022-10-08T15:22:44.795Z,62.50
2022-10-08T15:23:19.961Z,62.50
2022-10-08T15:23:57.529Z,62.50
2022-10-08T15:24:33.926Z,62.60
2022-10-08T15:25:10.385Z,62.80
2022-10-08T15:25:44.731Z,62.90
2022-10-08T15:26:20.775Z,62.70
2022-10-08T15:26:54.833Z,63.00
2022-10-08T15:27:31.495Z,63.10
2022-10-08T15:28:05.925Z,63.20
2022-10-08T15:28:42.477Z,63.10
2022-10-08T15:29:16.155Z,62.80
2022-10-08T15:29:49.612Z,62.70
2022-10-08T15:30:25.881Z,62.50
2022-10-08T15:31:07.396Z,62.90
2022-10-08T15:31:43.309Z,62.40
2022-10-08T15:32:17.215Z,62.40
2022-10-08T15:32:51.880Z,62.30
2022-10-08T15:33:31.828Z,62.20
2022-10-08T15:34:06.193Z,62.20
2022-10-08T15:34:42.279Z,62.40
2022-10-08T15:35:18.693Z,62.20
2022-10-08T15:35:52.984Z,62.20
2022-10-08T15:36:30.784Z,62.40
2022-10-08T15:37:05.375Z,62.30
2022-10-08T15:37:38.868Z,62.30
2022-10-08T15:38:15.294Z,62.40
2022-10-08T15:38:55.723Z,62.70
2022-10-08T15:39:35.685Z,62.90
2022-10-08T15:40:13.785Z,62.90
2022-10-08T15:40:48.504Z,62.80
2022-10-08T15:41:24.027Z,62.70
2022-10-08T15:41:58.878Z,62.50
2022-10-08T15:42:35.152Z,62.40
2022-10-08T15:43:09.979Z,62.70
2022-10-08T15:43:44.315Z,63.00
2022-10-08T15:44:22.445Z,63.10
2022-10-08T15:44:58.555Z,63.10
2022-10-08T15:45:33.384Z,63.00
2022-10-08T15:46:14.589Z,63.20
2022-10-08T15:46:53.938Z,63.40
2022-10-08T15:47:32.859Z,63.40
2022-10-08T15:48:12.029Z,63.30
2022-10-08T15:48:52.004Z,63.10
2022-10-08T15:49:33.273Z,62.90
2022-10-08T15:50:10.148Z,62.90
2022-10-08T15:50:46.339Z,63.00
2022-10-08T15:51:20.939Z,63.10
2022-10-08T15:51:55.474Z,63.20
2022-10-08T15:52:30.560Z,63.20
2022-10-08T15:53:05.720Z,63.20
2022-10-08T15:53:40.677Z,63.20
2022-10-08T15:54:15.120Z,63.10
2022-10-08T15:54:49.099Z,63.00
2022-10-08T15:55:24.131Z,63.30
2022-10-08T15:55:58.446Z,63.40
2022-10-08T15:56:32.966Z,63.60
2022-10-08T15:57:09.620Z,63.60
2022-10-08T15:57:43.366Z,63.70
2022-10-08T15:58:32.817Z,64.00
2022-10-08T15:59:13.434Z,64.40
2022-10-08T15:59:47.782Z,64.60
2022-10-08T16:00:37.237Z,64.60
2022-10-08T16:01:25.204Z,64.50
2022-10-08T16:01:59.414Z,64.90
2022-10-08T16:02:34.461Z,65.00
2022-10-08T16:03:09.369Z,64.80
2022-10-08T16:03:45.213Z,64.60
2022-10-08T16:04:19.767Z,64.40
2022-10-08T16:04:54.751Z,64.40
2022-10-08T16:05:30.551Z,64.60
2022-10-08T16:06:24.763Z,64.90
2022-10-08T16:07:00.562Z,64.80
2022-10-08T16:07:35.159Z,65.00
2022-10-08T16:08:10.398Z,65.30
2022-10-08T16:08:46.990Z,65.60
2022-10-08T16:09:22.878Z,65.70
2022-10-08T16:09:57.722Z,65.90
2022-10-08T16:10:32.688Z,65.90
2022-10-08T16:11:15.366Z,65.90
2022-10-08T16:11:50.778Z,65.80
2022-10-08T16:12:25.089Z,65.90
2022-10-08T16:13:01.353Z,65.80
2022-10-08T16:13:36.833Z,65.80
2022-10-08T16:14:13.420Z,65.90
2022-10-08T16:14:47.711Z,66.00
2022-10-08T16:15:24.115Z,66.10
2022-10-08T16:16:02.882Z,66.20
2022-10-08T16:16:40.352Z,66.20
2022-10-08T16:17:14.242Z,66.00
2022-10-08T16:17:49.917Z,66.00
2022-10-08T16:18:26.248Z,65.90
2022-10-08T16:19:02.275Z,65.80
2022-10-08T16:19:38.059Z,65.80
2022-10-08T16:20:13.032Z,65.70
2022-10-08T16:20:52.672Z,65.60
2022-10-08T16:21:28.219Z,65.80
2022-10-08T16:22:02.636Z,66.00
2022-10-08T16:22:39.060Z,66.60
2022-10-08T16:23:13.690Z,66.10
2022-10-08T16:23:49.654Z,66.20
2022-10-08T16:24:25.685Z,66.10
2022-10-08T16:25:01.182Z,66.20
2022-10-08T16:25:43.461Z,66.30
2022-10-08T16:26:21.259Z,66.10
2022-10-08T16:26:57.048Z,66.00
2022-10-08T16:27:31.577Z,66.00
2022-10-08T16:28:06.625Z,66.10
2022-10-08T16:28:43.977Z,66.10
2022-10-08T16:29:18.769Z,66.00
2022-10-08T16:29:54.432Z,66.20
2022-10-08T16:30:28.912Z,66.50
2022-10-08T16:31:03.727Z,67.20
2022-10-08T16:31:42.475Z,66.90
2022-10-08T16:32:17.404Z,66.80
2022-10-08T16:32:51.501Z,66.70
2022-10-08T16:33:27.463Z,66.80
2022-10-08T16:34:04.020Z,67.00
2022-10-08T16:34:39.412Z,67.10
2022-10-08T16:35:16.212Z,66.80
2022-10-08T16:35:50.244Z,66.50
2022-10-08T16:36:25.254Z,66.30
2022-10-08T16:37:01.736Z,66.10
2022-10-08T16:37:38.127Z,66.10
2022-10-08T16:38:12.555Z,66.10
2022-10-08T16:38:47.600Z,66.30
2022-10-08T16:39:25.967Z,66.40
2022-10-08T16:40:04.452Z,66.40
2022-10-08T16:40:39.386Z,66.30
2022-10-08T16:41:19.248Z,66.20
2022-10-08T16:41:53.648Z,66.10
2022-10-08T16:42:29.520Z,66.00
2022-10-08T16:43:05.118Z,66.00
2022-10-08T16:43:38.420Z,66.00
2022-10-08T16:44:15.340Z,66.10
2022-10-08T16:44:50.334Z,66.40
2022-10-08T16:45:26.932Z,66.80
2022-10-08T16:46:00.849Z,66.90
2022-10-08T16:46:39.293Z,66.90
2022-10-08T16:47:15.237Z,67.00
2022-10-08T16:47:51.447Z,67.10
2022-10-08T16:48:25.915Z,67.20
2022-10-08T16:49:00.792Z,67.40
2022-10-08T16:49:36.101Z,67.50
2022-10-08T16:50:12.563Z,67.80
2022-10-08T16:50:47.943Z,68.00
2022-10-08T16:51:25.679Z,68.00
2022-10-08T16:52:00.565Z,67.90
2022-10-08T16:52:36.262Z,68.00
2022-10-08T16:53:11.375Z,68.00
2022-10-08T16:53:47.928Z,68.10
2022-10-08T16:54:23.962Z,68.30
2022-10-08T16:54:58.961Z,68.40
2022-10-08T16:55:36.001Z,68.50
2022-10-08T16:56:10.987Z,68.50
2022-10-08T16:56:46.611Z,68.60
2022-10-08T16:58:31.316Z,68.70
2022-10-08T16:59:09.254Z,68.50
2022-10-08T16:59:43.527Z,68.90
2022-10-08T17:00:24.886Z,69.10
2022-10-08T17:01:08.324Z,69.20
2022-10-08T17:01:43.742Z,69.30
2022-10-08T17:02:25.624Z,69.30
2022-10-08T17:03:00.203Z,69.30
2022-10-08T17:03:34.432Z,69.30
2022-10-08T17:04:10.725Z,69.50
2022-10-08T17:04:44.709Z,69.70
2022-10-08T17:05:18.765Z,69.80
2022-10-08T17:05:54.876Z,70.10
2022-10-08T17:06:29.757Z,70.30
2022-10-08T17:07:05.691Z,70.50
2022-10-08T17:07:39.784Z,70.50
2022-10-08T17:08:13.896Z,70.50
2022-10-08T17:08:50.331Z,70.50
2022-10-08T17:09:24.883Z,70.60
2022-10-08T17:09:59.827Z,70.70
2022-10-08T17:10:36.328Z,70.80
2022-10-08T17:11:12.232Z,71.10
2022-10-08T17:11:45.957Z,71.10
2022-10-08T17:12:22.034Z,71.00
2022-10-08T17:12:56.336Z,70.90
2022-10-08T17:13:30.014Z,70.80
2022-10-08T17:14:08.187Z,70.70
2022-10-08T17:14:42.810Z,70.70
2022-10-08T17:15:19.044Z,70.90
2022-10-08T17:16:00.280Z,70.90
2022-10-08T17:16:36.094Z,71.10
2022-10-08T17:17:11.290Z,71.30
2022-10-08T17:17:52.085Z,71.40
2022-10-08T17:18:32.985Z,71.60
2022-10-08T17:19:08.218Z,71.60
2022-10-08T17:19:45.033Z,71.70
2022-10-08T17:20:19.422Z,71.80
2022-10-08T17:20:56.575Z,72.10
2022-10-08T17:21:34.464Z,72.30
2022-10-08T17:22:11.172Z,72.30
2022-10-08T17:22:45.729Z,72.40
2022-10-08T17:23:21.192Z,72.40
2022-10-08T17:24:00.937Z,72.30
2022-10-08T17:24:40.231Z,72.20
2022-10-08T17:25:15.881Z,72.30
2022-10-08T17:25:55.860Z,72.30
2022-10-08T17:26:32.277Z,72.50
2022-10-08T17:27:07.315Z,72.60
2022-10-08T17:27:41.066Z,72.60
2022-10-08T17:28:16.141Z,72.60
2022-10-08T17:28:52.795Z,72.80
2022-10-08T17:29:28.232Z,72.80
2022-10-08T17:30:04.062Z,72.80
2022-10-08T17:30:39.245Z,72.80
2022-10-08T17:31:16.437Z,72.90
2022-10-08T17:31:51.722Z,73.00
2022-10-08T17:32:26.023Z,73.10
2022-10-08T17:33:02.538Z,73.20
2022-10-08T17:33:38.050Z,73.20
2022-10-08T17:34:12.375Z,73.10
2022-10-08T17:34:45.755Z,73.20
2022-10-08T17:35:21.797Z,73.20
2022-10-08T17:36:01.475Z,73.00
2022-10-08T17:36:38.264Z,72.90
2022-10-08T17:37:12.306Z,72.80
2022-10-08T17:37:45.762Z,72.80
2022-10-08T17:38:27.893Z,72.90
2022-10-08T17:39:03.765Z,72.90
2022-10-08T17:39:39.177Z,73.00
2022-10-08T17:40:13.949Z,73.70
2022-10-08T17:40:47.895Z,73.40
2022-10-08T17:41:26.327Z,73.50
2022-10-08T17:42:04.833Z,73.60
2022-10-08T17:42:43.404Z,73.70
2022-10-08T17:43:17.703Z,73.80
2022-10-08T17:43:52.147Z,73.90
2022-10-08T17:44:27.220Z,74.00
2022-10-08T17:45:02.163Z,74.10
2022-10-08T17:45:36.048Z,74.20
2022-10-08T17:46:12.794Z,74.20
2022-10-08T17:46:47.537Z,74.10
2022-10-08T17:47:27.055Z,74.10
2022-10-08T17:48:05.692Z,74.10
2022-10-08T17:48:42.206Z,74.10
2022-10-08T17:49:17.642Z,74.40
2022-10-08T17:49:52.202Z,74.70
2022-10-08T17:50:26.951Z,74.90
2022-10-08T17:51:02.382Z,75.00
2022-10-08T17:51:37.692Z,75.10
2022-10-08T17:52:12.644Z,75.10
2022-10-08T17:52:46.707Z,75.20
2022-10-08T17:53:22.644Z,75.40
2022-10-08T17:54:00.930Z,75.50
2022-10-08T17:54:38.092Z,75.50
2022-10-08T17:55:16.619Z,75.50
2022-10-08T17:55:58.752Z,75.50
2022-10-08T17:56:34.837Z,75.50
2022-10-08T17:57:09.338Z,75.40
2022-10-08T17:57:44.184Z,75.50
2022-10-08T17:58:20.952Z,75.60
2022-10-08T17:58:57.423Z,75.70
2022-10-08T17:59:32.271Z,75.90
2022-10-08T18:00:06.303Z,76.00
2022-10-08T18:00:48.992Z,76.10
2022-10-08T18:01:24.879Z,76.10
2022-10-08T18:02:02.023Z,76.10
2022-10-08T18:02:35.974Z,76.00
2022-10-08T18:03:12.522Z,76.10
2022-10-08T18:03:53.318Z,76.10
2022-10-08T18:04:27.658Z,76.20
2022-10-08T18:05:01.884Z,76.10
2022-10-08T18:05:38.266Z,76.00
2022-10-08T18:06:13.332Z,76.20
2022-10-08T18:06:49.561Z,76.20
2022-10-08T18:07:23.824Z,76.70
2022-10-08T18:07:58.216Z,76.40
2022-10-08T18:08:36.903Z,76.50
2022-10-08T18:09:13.419Z,76.30
2022-10-08T18:09:52.611Z,76.30
2022-10-08T18:10:27.454Z,76.30
2022-10-08T18:11:02.702Z,76.20
2022-10-08T18:11:41.185Z,76.00
2022-10-08T18:12:16.000Z,75.90
2022-10-08T18:12:50.869Z,75.70
2022-10-08T18:13:26.531Z,75.60
2022-10-08T18:14:00.670Z,75.50
2022-10-08T18:14:36.382Z,75.40
2022-10-08T18:15:12.653Z,75.30
2022-10-08T18:15:46.633Z,75.20
2022-10-08T18:16:21.819Z,75.10
2022-10-08T18:16:58.048Z,75.00
2022-10-08T18:17:34.028Z,75.00
2022-10-08T18:18:09.332Z,74.90
2022-10-08T18:18:46.680Z,74.90
2022-10-08T18:19:21.811Z,74.80
2022-10-08T18:19:56.196Z,74.70
2022-10-08T18:20:30.225Z,74.80
2022-10-08T18:21:06.754Z,74.80
2022-10-08T18:21:42.737Z,74.80
2022-10-08T18:22:17.369Z,74.80
2022-10-08T18:22:52.247Z,74.90
2022-10-08T18:23:28.275Z,74.90
2022-10-08T18:24:04.179Z,74.90
2022-10-08T18:24:38.840Z,74.90
2022-10-08T18:25:12.668Z,74.50
2022-10-08T18:25:52.938Z,74.50
2022-10-08T18:26:29.413Z,74.50
2022-10-08T18:27:05.987Z,74.40
2022-10-08T18:27:41.571Z,74.50
2022-10-08T18:28:15.381Z,74.70
2022-10-08T18:28:52.390Z,74.70
2022-10-08T18:29:27.478Z,74.90
2022-10-08T18:30:03.076Z,74.90
2022-10-08T18:30:37.897Z,74.70
2022-10-08T18:31:13.777Z,74.50
2022-10-08T18:31:50.032Z,74.50
2022-10-08T18:32:24.540Z,74.40
2022-10-08T18:32:59.210Z,74.40
2022-10-08T18:33:35.225Z,74.30
2022-10-08T18:34:14.132Z,74.30
2022-10-08T18:34:49.427Z,74.30
2022-10-08T18:35:26.918Z,74.30
2022-10-08T18:36:09.907Z,74.30
2022-10-08T18:36:45.365Z,74.30
2022-10-08T18:37:21.090Z,74.30
2022-10-08T18:37:57.481Z,74.30
2022-10-08T18:38:33.704Z,74.40
2022-10-08T18:39:12.285Z,74.30
2022-10-08T18:39:47.972Z,74.30
2022-10-08T18:40:22.505Z,74.20
2022-10-08T18:40:56.856Z,74.20
2022-10-08T18:41:34.673Z,74.20
2022-10-08T18:42:10.017Z,74.20
2022-10-08T18:42:44.463Z,74.20
2022-10-08T18:43:21.287Z,74.30
2022-10-08T18:43:55.846Z,74.40
2022-10-08T18:44:32.010Z,74.50
2022-10-08T18:45:08.679Z,74.70
2022-10-08T18:45:45.197Z,74.80
2022-10-08T18:46:20.659Z,74.80
2022-10-08T18:46:55.125Z,74.70
2022-10-08T18:47:30.760Z,74.70
2022-10-08T18:48:05.601Z,74.50
2022-10-08T18:48:40.998Z,74.60
2022-10-08T18:49:20.164Z,74.50
2022-10-08T18:49:55.190Z,74.40
2022-10-08T18:50:30.604Z,74.40
2022-10-08T18:51:06.535Z,74.50
2022-10-08T18:51:42.193Z,74.40
2022-10-08T18:52:21.215Z,74.40
2022-10-08T18:52:57.771Z,74.50
2022-10-08T18:53:33.175Z,74.60
2022-10-08T18:54:08.501Z,74.50
2022-10-08T18:54:43.468Z,74.50
2022-10-08T18:55:18.264Z,74.50
2022-10-08T18:55:53.520Z,74.60
2022-10-08T18:56:30.723Z,74.70
2022-10-08T18:57:06.032Z,74.90
2022-10-08T18:57:40.604Z,75.00
2022-10-08T18:58:16.739Z,74.90
2022-10-08T18:58:53.844Z,74.90
2022-10-08T18:59:31.714Z,74.80
2022-10-08T19:00:08.644Z,74.80
2022-10-08T19:00:45.601Z,74.80
2022-10-08T19:01:22.582Z,74.80
2022-10-08T19:01:59.689Z,74.80
2022-10-08T19:02:35.784Z,74.80
2022-10-08T19:03:10.884Z,74.80
2022-10-08T19:04:10.656Z,74.90
2022-10-08T19:04:46.691Z,75.50
2022-10-08T19:05:21.215Z,75.00
2022-10-08T19:05:56.332Z,75.10
2022-10-08T19:06:32.874Z,75.10
2022-10-08T19:07:08.536Z,75.10
2022-10-08T19:07:42.681Z,75.10
2022-10-08T19:08:16.553Z,75.20
2022-10-08T19:08:52.628Z,75.20
2022-10-08T19:09:27.017Z,75.20
2022-10-08T19:10:02.577Z,75.10
2022-10-08T19:10:35.886Z,75.00
2022-10-08T19:11:12.781Z,75.00
2022-10-08T19:11:50.502Z,75.00
2022-10-08T19:12:24.074Z,75.00
2022-10-08T19:12:59.458Z,75.10